Time;durP1;ratioP1;P1;durP2;ratioP2;P2;SDS_P1;SDS_P2;PMS_P1;PMS_P2;Temp;Humidity;BMP_temperature;BMP_pressure;BME280_temperature;BME280_humidity;BME280_pressure;Samples;Min_cycle;Max_cycle;Signal;HPM_P1;HPM_P2
2024/04/10 00:05:22;;;;;;;12.50;4.70;;;;;;;14.28;67.15;98985.98;449018;1236;138969;-58
2024/04/10 00:15:26;;;;;;;9.40;5.30;;;;;;;14.00;67.99;98986.67;448477;1234;138167;-58
2024/04/10 00:25:32;;;;;;;6.60;5.00;;;;;;;13.81;68.83;99005.85;450166;1236;138555;-62
2024/04/10 00:35:35;;;;;;;6.20;4.20;;;;;;;13.79;69.63;99030.88;450652;1236;138582;-62
2024/04/10 00:45:42;;;;;;;11.40;6.50;;;;;;;13.95;70.92;99043.06;448711;1236;139074;-61
2024/04/10 00:55:48;;;;;;;11.40;5.80;;;;;;;14.25;72.67;99058.36;448380;1236;139203;-62
2024/04/10 01:05:58;;;;;;;14.00;5.10;;;;;;;14.50;73.83;99090.35;449684;1236;139127;-58
2024/04/10 01:16:03;;;;;;;6.20;4.20;;;;;;;14.56;74.79;99109.55;449623;1234;138633;-61
2024/04/10 01:26:06;;;;;;;10.10;5.30;;;;;;;14.62;75.32;99127.95;445751;1234;5113014;-58
2024/04/10 01:36:11;;;;;;;7.80;3.70;;;;;;;14.51;75.66;99157.76;449058;1234;139373;-58
2024/04/10 01:46:16;;;;;;;8.60;4.00;;;;;;;14.38;76.00;99178.40;448101;1236;138522;-58
2024/04/10 01:56:19;;;;;;;6.10;3.40;;;;;;;14.26;76.09;99202.00;448754;1236;138621;-57
2024/04/10 02:06:23;;;;;;;8.30;3.80;;;;;;;14.11;76.49;99217.82;449192;1234;138434;-57
2024/04/10 02:16:27;;;;;;;5.50;4.40;;;;;;;13.98;76.59;99242.48;449365;1234;138487;-57
2024/04/10 02:26:30;;;;;;;4.90;3.10;;;;;;;13.93;76.93;99258.73;448821;1236;138462;-57
2024/04/10 02:36:33;;;;;;;5.00;4.50;;;;;;;13.99;77.29;99266.02;449646;1234;138845;-58
2024/04/10 02:46:37;;;;;;;8.10;4.20;;;;;;;14.01;77.04;99285.03;450150;1234;139089;-57
2024/04/10 02:56:42;;;;;;;12.20;4.20;;;;;;;13.95;76.88;99297.09;449602;1234;138554;-61
2024/04/10 03:06:47;;;;;;;5.10;2.90;;;;;;;13.85;76.65;99325.73;451090;1234;138935;-62
2024/04/10 03:16:51;;;;;;;6.60;3.00;;;;;;;13.76;76.57;99354.40;449344;1234;138568;-60
2024/04/10 03:26:55;;;;;;;4.20;2.90;;;;;;;13.67;76.43;99382.92;449611;1233;138446;-60
2024/04/10 03:36:58;;;;;;;5.70;3.00;;;;;;;13.52;76.62;99397.45;449325;1234;138894;-58
2024/04/10 03:47:02;;;;;;;5.90;3.70;;;;;;;13.37;76.75;99415.71;449199;1236;139390;-58
2024/04/10 03:57:08;;;;;;;6.30;3.70;;;;;;;13.16;77.08;99442.45;448957;1234;139028;-58
2024/04/10 04:07:11;;;;;;;4.70;3.20;;;;;;;12.97;77.65;99463.91;449149;1236;139330;-58
2024/04/10 04:17:16;;;;;;;6.40;4.00;;;;;;;12.86;78.17;99490.55;449426;1236;138487;-59
2024/04/10 04:27:19;;;;;;;7.10;3.30;;;;;;;12.85;78.61;99503.60;449642;1234;139105;-57
2024/04/10 04:37:23;;;;;;;4.40;3.20;;;;;;;12.95;78.52;99520.31;450375;1235;138626;-57
2024/04/10 04:47:29;;;;;;;5.60;3.60;;;;;;;13.14;78.63;99538.39;450086;1236;138888;-58
2024/04/10 04:57:35;;;;;;;8.80;4.10;;;;;;;13.33;78.74;99558.58;448781;1236;138519;-58
2024/04/10 05:07:38;;;;;;;5.80;4.60;;;;;;;13.44;78.71;99588.55;449172;1234;139608;-57
2024/04/10 05:17:43;;;;;;;7.40;4.40;;;;;;;13.50;78.69;99610.11;448619;1236;138718;-57
2024/04/10 05:27:49;;;;;;;4.60;3.90;;;;;;;13.52;78.58;99628.88;448922;1236;138658;-66
2024/04/10 05:37:52;;;;;;;8.90;4.60;;;;;;;13.62;78.69;99649.98;448532;1236;139066;-64
2024/04/10 05:47:56;;;;;;;11.20;3.80;;;;;;;13.77;78.52;99676.81;450139;1236;138721;-55
2024/04/10 05:58:02;;;;;;;6.40;3.60;;;;;;;13.94;78.05;99694.70;450575;1235;139662;-53
2024/04/10 06:08:07;;;;;;;4.60;2.80;;;;;;;14.05;77.10;99713.05;450471;1234;138655;-59
2024/04/10 06:18:10;;;;;;;4.80;2.40;;;;;;;14.01;75.68;99738.75;452470;1236;138791;-60
2024/04/10 06:28:13;;;;;;;4.80;2.40;;;;;;;13.92;73.52;99755.60;450198;1234;138712;-64
2024/04/10 06:38:17;;;;;;;3.20;1.30;;;;;;;13.90;71.73;99771.38;448758;1236;138779;-65
2024/04/10 06:48:21;;;;;;;5.80;1.30;;;;;;;13.88;69.50;99810.66;448913;1234;138664;-54
2024/04/10 06:58:25;;;;;;;5.70;1.00;;;;;;;13.78;66.73;99845.30;449663;1235;139033;-55
2024/04/10 07:08:31;;;;;;;3.80;1.10;;;;;;;13.75;65.08;99856.79;450500;1236;138580;-57
2024/04/10 07:18:34;;;;;;;4.10;1.10;;;;;;;13.81;64.03;99864.42;449878;1234;138464;-56
2024/04/10 07:28:46;;;;;;;4.80;2.30;;;;;;;13.89;62.89;99870.34;448921;1236;138508;-54
2024/04/10 07:38:54;;;;;;;2.60;2.40;;;;;;;13.99;62.07;99874.88;449844;1236;138042;-58
2024/04/10 07:48:59;;;;;;;5.70;1.70;;;;;;;14.23;61.79;99895.17;449626;1236;138038;-60
2024/04/10 07:59:06;;;;;;;12.50;3.50;;;;;;;14.58;60.03;99911.38;449892;1235;138627;-65
2024/04/10 08:09:09;;;;;;;3.00;1.10;;;;;;;14.67;59.06;99924.81;450185;1236;138243;-66
2024/04/10 08:19:13;;;;;;;5.10;1.30;;;;;;;14.87;58.43;99939.23;450190;1236;138478;-59
2024/04/10 08:29:16;;;;;;;3.20;1.90;;;;;;;15.19;57.92;99962.67;449304;1234;139141;-59
2024/04/10 08:39:21;;;;;;;2.20;1.40;;;;;;;15.58;57.11;99970.08;449198;1237;138773;-59
2024/04/10 08:49:26;;;;;;;4.50;2.00;;;;;;;15.76;56.60;99980.33;448759;1238;138418;-60
2024/04/10 08:59:31;;;;;;;2.10;1.20;;;;;;;16.03;56.22;99995.35;450174;1238;138409;-59
2024/04/10 09:09:34;;;;;;;5.50;1.80;;;;;;;16.45;55.46;100014.92;450189;1237;138274;-60
2024/04/10 09:19:38;;;;;;;5.50;2.30;;;;;;;16.45;54.32;100029.58;450696;1233;138344;-58
2024/04/10 09:29:44;;;;;;;3.80;2.30;;;;;;;16.24;54.26;100040.61;451723;1237;138871;-59
2024/04/10 09:39:52;;;;;;;3.90;1.10;;;;;;;16.26;54.11;100057.94;449135;1235;138271;-59
2024/04/10 09:49:59;;;;;;;3.70;1.20;;;;;;;16.36;53.94;100071.96;448908;1237;138401;-60
2024/04/10 10:00:07;;;;;;;5.50;1.80;;;;;;;16.91;53.57;100065.58;450049;1237;138855;-60
2024/04/10 10:10:12;;;;;;;2.70;1.30;;;;;;;17.55;52.42;100067.59;448967;1237;138869;-59
2024/04/10 10:20:22;;;;;;;5.40;2.30;;;;;;;17.81;51.52;100080.70;448994;1239;138151;-59
2024/04/10 10:30:27;;;;;;;7.30;1.60;;;;;;;17.69;51.26;100094.02;449679;1238;138909;-59
2024/04/10 10:40:32;;;;;;;6.30;1.60;;;;;;;17.77;51.12;100107.77;451029;1233;139056;-58
2024/04/10 10:50:35;;;;;;;2.90;1.00;;;;;;;17.86;50.67;100123.64;450416;1237;138406;-67
2024/04/10 11:00:39;;;;;;;2.60;1.10;;;;;;;17.98;50.24;100139.50;450098;1237;139294;-69
2024/04/10 11:10:42;;;;;;;6.30;1.90;;;;;;;18.29;50.25;100152.98;449591;1239;138793;-55
2024/04/10 11:20:46;;;;;;;4.70;1.60;;;;;;;18.80;50.28;100179.11;449886;1237;138537;-55
2024/04/10 11:30:52;;;;;;;5.60;1.50;;;;;;;18.55;49.34;100200.48;449682;1237;139218;-55
2024/04/10 11:40:56;;;;;;;4.50;2.20;;;;;;;18.36;49.81;100209.77;449618;1236;138906;-56
2024/04/10 11:51:06;;;;;;;2.20;1.10;;;;;;;18.65;49.71;100221.30;449040;1238;138240;-66
2024/04/10 12:01:11;;;;;;;2.80;1.10;;;;;;;18.64;49.00;100237.45;448506;1237;138429;-65
2024/04/10 12:11:18;;;;;;;4.10;1.20;;;;;;;18.20;48.76;100255.29;449035;1237;138555;-65
2024/04/10 12:21:21;;;;;;;11.70;2.20;;;;;;;17.75;48.98;100267.12;449583;1234;138744;-65
2024/04/10 12:31:27;;;;;;;2.50;1.20;;;;;;;17.47;49.26;100280.63;449406;1237;138723;-65
2024/04/10 12:41:33;;;;;;;2.40;1.10;;;;;;;16.95;49.56;100291.41;449118;1238;138927;-66
2024/04/10 12:51:36;;;;;;;2.80;1.50;;;;;;;16.39;49.58;100300.54;449823;1238;138633;-66
2024/04/10 13:01:40;;;;;;;5.00;1.10;;;;;;;16.01;49.81;100313.64;449626;1238;138250;-59
2024/04/10 13:11:46;;;;;;;2.70;1.40;;;;;;;15.72;50.08;100306.10;449058;1237;138687;-60
2024/04/10 13:21:49;;;;;;;5.40;2.10;;;;;;;15.44;51.21;100305.30;449117;1237;138176;-59
2024/04/10 13:31:53;;;;;;;6.70;1.40;;;;;;;15.46;52.23;100304.98;448152;1237;441309;-59
2024/04/10 13:41:56;;;;;;;3.20;1.20;;;;;;;15.56;52.85;100316.91;449445;1235;139484;-60
2024/04/10 13:52:00;;;;;;;6.30;1.70;;;;;;;15.78;52.68;100324.36;449628;1235;138678;-60
2024/04/10 14:02:05;;;;;;;4.50;1.70;;;;;;;15.67;52.64;100334.29;449922;1237;138717;-65
2024/04/10 14:12:09;;;;;;;2.50;1.50;;;;;;;15.93;52.79;100338.81;449281;1238;138588;-65
2024/04/10 14:22:13;;;;;;;5.10;1.40;;;;;;;16.02;52.27;100335.34;449935;1237;138952;-66
2024/04/10 14:32:16;;;;;;;9.10;2.00;;;;;;;16.03;52.33;100342.64;449090;1237;142050;-66
2024/04/10 14:42:19;;;;;;;3.80;1.80;;;;;;;16.16;52.18;100351.23;449502;1237;138260;-67
2024/04/10 14:52:25;;;;;;;6.10;1.80;;;;;;;16.09;51.80;100359.30;448554;1238;138307;-66
2024/04/10 15:02:29;;;;;;;4.20;1.10;;;;;;;15.98;51.66;100373.59;449268;1238;138138;-56
2024/04/10 15:12:32;;;;;;;5.70;1.70;;;;;;;15.93;51.32;100389.31;449365;1237;138663;-55
2024/04/10 15:22:36;;;;;;;4.30;1.70;;;;;;;15.70;52.10;100397.63;449420;1237;138702;-58
2024/04/10 15:32:41;;;;;;;4.70;3.10;;;;;;;15.42;53.18;100406.70;449977;1237;138726;-58
2024/04/10 15:42:45;;;;;;;6.80;2.20;;;;;;;15.35;53.54;100416.69;449484;1237;138282;-59
2024/04/10 15:52:48;;;;;;;4.50;1.60;;;;;;;15.11;54.20;100425.81;449047;1238;138772;-58
2024/04/10 16:02:55;;;;;;;3.80;2.50;;;;;;;14.93;54.80;100440.92;449619;1237;138317;-58
2024/04/10 16:12:58;;;;;;;4.00;2.00;;;;;;;14.73;55.08;100450.23;450107;1237;138971;-58
2024/04/10 16:23:04;;;;;;;8.30;3.00;;;;;;;14.43;55.65;100457.28;448595;1237;138240;-59
2024/04/10 16:33:07;;;;;;;5.70;2.90;;;;;;;14.13;56.36;100462.06;449315;1237;138218;-55
2024/04/10 16:43:11;;;;;;;3.60;2.00;;;;;;;13.99;57.08;100470.52;448900;1237;138243;-53
2024/04/10 16:53:14;;;;;;;10.40;2.50;;;;;;;13.81;57.53;100481.85;449115;1237;138768;-65
2024/04/10 17:03:18;;;;;;;1.50;1.40;;;;;;;13.62;57.98;100501.02;449620;1237;139057;-66
2024/04/10 17:13:22;;;;;;;7.70;2.80;;;;;;;13.41;58.61;100510.73;450148;1235;138854;-61
2024/04/10 17:23:25;;;;;;;12.20;3.10;;;;;;;13.23;59.42;100523.40;450527;1237;138466;-67
2024/04/10 17:33:30;;;;;;;4.50;3.00;;;;;;;13.04;60.21;100529.41;462615;1235;139238;-60
2024/04/10 17:43:34;;;;;;;6.20;3.60;;;;;;;12.90;61.20;100550.81;462703;1236;138576;-63
2024/04/10 17:53:38;;;;;;;11.90;3.90;;;;;;;12.81;61.99;100575.37;462492;1235;138741;-62
2024/04/10 18:03:42;;;;;;;7.20;4.40;;;;;;;12.65;62.55;100592.45;462567;1234;138425;-62
2024/04/10 18:13:45;;;;;;;4.90;4.20;;;;;;;12.33;63.31;100604.56;462321;1235;138981;-63
2024/04/10 18:23:49;;;;;;;8.40;5.50;;;;;;;12.04;64.32;100625.11;462542;1234;139927;-64
2024/04/10 18:33:53;;;;;;;12.60;5.30;;;;;;;11.76;65.37;100640.23;458552;1234;140075;-63
2024/04/10 18:43:56;;;;;;;12.10;5.30;;;;;;;11.52;66.35;100652.31;452867;1237;139545;-65
2024/04/10 18:54:00;;;;;;;6.50;4.90;;;;;;;11.34;67.46;100664.98;449478;1237;139177;-60
2024/04/10 19:04:04;;;;;;;13.50;6.30;;;;;;;11.28;68.28;100673.13;449570;1237;139023;-66
2024/04/10 19:14:11;;;;;;;15.70;6.50;;;;;;;11.27;69.09;100692.80;452865;1237;139320;-70
2024/04/10 19:24:14;;;;;;;12.30;7.60;;;;;;;11.32;69.71;100702.56;462374;1237;139759;-63
2024/04/10 19:34:18;;;;;;;10.60;7.50;;;;;;;11.45;70.10;100712.47;462423;1235;139975;-64
2024/04/10 19:44:21;;;;;;;7.30;6.10;;;;;;;11.59;70.32;100720.17;462592;1234;139182;-61
2024/04/10 19:54:27;;;;;;;5.30;4.20;;;;;;;11.74;70.12;100727.31;462357;1233;139719;-62
2024/04/10 20:04:30;;;;;;;8.80;5.00;;;;;;;11.85;69.79;100740.26;462372;1234;139690;-58
2024/04/10 20:14:35;;;;;;;6.20;4.10;;;;;;;11.86;69.62;100737.93;454058;1235;138981;-59
2024/04/10 20:24:39;;;;;;;7.30;4.30;;;;;;;11.82;69.77;100743.23;449831;1237;139156;-81
2024/04/10 20:34:42;;;;;;;8.40;5.00;;;;;;;11.79;69.98;100752.52;449899;1237;139073;-79
2024/04/10 20:44:47;;;;;;;4.40;3.90;;;;;;;11.80;69.89;100761.09;449268;1236;139122;-50
2024/04/10 20:54:53;;;;;;;5.90;3.50;;;;;;;11.79;69.52;100769.20;450212;1235;139243;-53
2024/04/10 21:04:57;;;;;;;5.90;3.40;;;;;;;11.77;69.15;100776.63;449672;1237;139534;-52
2024/04/10 22:27:45;;;;;;;5.10;2.40;;;;;;;11.33;65.97;100866.26;448659;1237;140249;-54
2024/04/10 22:37:48;;;;;;;3.90;2.50;;;;;;;11.30;65.99;100877.95;450633;1234;140319;-82
2024/04/10 22:47:51;;;;;;;5.70;2.10;;;;;;;11.29;65.99;100892.41;450630;1234;139429;-82
2024/04/10 22:57:55;;;;;;;2.90;2.00;;;;;;;11.28;65.99;100905.38;450479;1237;139213;-59
2024/04/10 23:08:00;;;;;;;3.00;2.30;;;;;;;11.26;65.94;100903.39;451290;1234;139269;-57
2024/04/10 23:18:23;;;;;;;6.00;2.20;;;;;;;11.23;65.89;100916.31;449186;1234;139248;-59
2024/04/10 23:28:47;;;;;;;3.40;2.20;;;;;;;11.18;65.78;100924.41;450681;1235;140358;-57
2024/04/10 23:38:50;;;;;;;4.30;2.80;;;;;;;11.14;65.80;100934.59;449725;1237;139321;-58
2024/04/10 23:48:54;;;;;;;6.50;2.90;;;;;;;11.07;65.69;100931.23;449506;1237;139909;-60
2024/04/10 23:58:57;;;;;;;1.90;1.70;;;;;;;10.97;65.74;100934.45;448928;1233;139653;-58
